Aviation Digital Data Service (ADDS)

Output produced by TAFs form (0646 UTC 18 February 2018)
found at http://www.aviationweather.gov/adds/tafs/
 
METAR text: RJBD 180600Z 32013KT 9999 FEW040 08/M06 Q1020
Conditions at: RJBD (NANKISHIRAHAMA A, JP) observed 0600 UTC 18 February 2018
Temperature: 8.0°C (46°F)
Dewpoint: -6.0°C (21°F) [RH = 36%]
Pressure (altimeter): 30.12 inches Hg (1020.0 mb)
Winds: from the NW (320 degrees) at 15 MPH (13 knots; 6.8 m/s)
Visibility: 6 or more miles (10+ km)
Ceiling: at least 12,000 feet AGL
Clouds: few clouds at 4000 feet AGL
Weather: no significant weather observed at this time